Time;durP1;ratioP1;P1;durP2;ratioP2;P2;SDS_P1;SDS_P2;PMS_P1;PMS_P2;Temp;Humidity;BMP_temperature;BMP_pressure;BME280_temperature;BME280_humidity;BME280_pressure;Samples;Min_cycle;Max_cycle;Signal;HPM_P1;HPM_P2
2021/10/31 00:02:01;;;;;;;7.35;4.22;;;;;;;;;;5012273;28;20038;-82
2021/10/31 00:04:26;;;;;;;9.75;4.22;;;;;;;;;;5011665;28;20036;-80
2021/10/31 00:06:52;;;;;;;9.45;4.70;;;;;;;;;;5015224;28;20026;-82
2021/10/31 00:09:17;;;;;;;8.60;4.40;;;;;;;;;;5014142;28;20034;-78
2021/10/31 00:11:42;;;;;;;9.27;4.65;;;;;;;;;;5005962;28;20054;-77
2021/10/31 00:14:08;;;;;;;10.93;4.28;;;;;;;;;;5008967;28;20481;-78
2021/10/31 00:16:33;;;;;;;7.97;4.32;;;;;;;;;;5014217;28;20108;-82
2021/10/31 00:18:58;;;;;;;8.82;3.92;;;;;;;;;;5013276;28;20072;-82
2021/10/31 00:21:25;;;;;;;7.20;4.40;;;;;;;;;;5008644;28;20088;-78
2021/10/31 00:23:52;;;;;;;9.02;4.07;;;;;;;;;;5008576;28;20042;-77
2021/10/31 00:26:17;;;;;;;7.13;4.28;;;;;;;;;;5014645;28;20042;-77
2021/10/31 00:28:43;;;;;;;9.55;4.07;;;;;;;;;;5014720;28;20053;-76
2021/10/31 00:31:10;;;;;;;9.68;4.32;;;;;;;;;;5010613;28;20034;-82
2021/10/31 00:33:36;;;;;;;8.65;4.20;;;;;;;;;;5011772;28;20038;-77
2021/10/31 00:36:01;;;;;;;6.78;3.75;;;;;;;;;;5012438;28;20025;-77
2021/10/31 00:38:26;;;;;;;7.68;3.92;;;;;;;;;;5010792;28;20036;-82
2021/10/31 00:40:52;;;;;;;8.32;4.25;;;;;;;;;;5000297;28;20072;-82
2021/10/31 00:43:17;;;;;;;8.70;4.10;;;;;;;;;;5012119;28;20208;-77
2021/10/31 00:45:43;;;;;;;7.03;4.15;;;;;;;;;;5006691;28;20030;-82
2021/10/31 00:48:09;;;;;;;9.05;4.32;;;;;;;;;;5013636;28;20030;-76
2021/10/31 00:50:34;;;;;;;9.20;4.05;;;;;;;;;;5007145;28;20169;-83
2021/10/31 00:53:01;;;;;;;9.88;4.40;;;;;;;;;;5008879;28;20041;-82
2021/10/31 00:55:26;;;;;;;10.52;5.28;;;;;;;;;;5011923;28;20557;-81
2021/10/31 00:57:52;;;;;;;9.60;5.30;;;;;;;;;;5022016;28;20069;-77
2021/10/31 01:00:17;;;;;;;8.57;4.90;;;;;;;;;;5009998;28;20033;-81
2021/10/31 01:02:43;;;;;;;8.65;4.80;;;;;;;;;;5010708;28;20585;-77
2021/10/31 01:05:13;;;;;;;11.35;5.13;;;;;;;;;;5015339;28;20042;-83
2021/10/31 01:07:59;;;;;;;9.15;5.28;;;;;;;;;;5010405;28;20409;-84
2021/10/31 01:10:25;;;;;;;8.40;4.75;;;;;;;;;;5023383;28;20070;-84
2021/10/31 01:13:28;;;;;;;10.25;4.93;;;;;;;;;;5019098;28;20080;-77
2021/10/31 01:16:07;;;;;;;6.83;4.87;;;;;;;;;;5007297;28;20029;-77
2021/10/31 01:18:46;;;;;;;8.30;4.85;;;;;;;;;;5015395;28;20378;-83
2021/10/31 01:21:32;;;;;;;8.13;4.18;;;;;;;;;;5010480;28;20049;-77
2021/10/31 01:24:11;;;;;;;11.95;5.05;;;;;;;;;;5002944;28;20112;-77
2021/10/31 01:27:16;;;;;;;8.30;4.70;;;;;;;;;;5013147;28;20481;-81
2021/10/31 01:30:03;;;;;;;8.13;4.78;;;;;;;;;;5000002;28;20049;-82
2021/10/31 01:33:02;;;;;;;9.07;4.82;;;;;;;;;;5016659;28;20038;-82
2021/10/31 01:35:39;;;;;;;8.63;5.15;;;;;;;;;;5020869;28;20404;-77
2021/10/31 01:38:19;;;;;;;8.32;4.65;;;;;;;;;;5008559;28;20065;-78
2021/10/31 01:40:55;;;;;;;7.53;4.68;;;;;;;;;;5009154;28;20034;-81
2021/10/31 01:43:28;;;;;;;11.00;4.97;;;;;;;;;;5011890;28;20481;-82
2021/10/31 01:46:01;;;;;;;10.20;5.30;;;;;;;;;;5013119;28;20177;-82
2021/10/31 01:48:36;;;;;;;11.38;5.28;;;;;;;;;;5016291;28;20270;-77
2021/10/31 01:51:11;;;;;;;10.02;4.80;;;;;;;;;;5014511;28;20045;-78
2021/10/31 01:53:44;;;;;;;9.13;5.32;;;;;;;;;;5009322;28;20493;-77
2021/10/31 01:56:14;;;;;;;11.30;5.20;;;;;;;;;;5010894;28;20026;-77
2021/10/31 01:58:45;;;;;;;10.30;5.00;;;;;;;;;;5031560;28;20801;-82
2021/10/31 02:01:14;;;;;;;8.70;5.10;;;;;;;;;;5016722;28;20034;-82
2021/10/31 02:03:40;;;;;;;8.68;5.15;;;;;;;;;;5012752;28;20025;-77
2021/10/31 02:06:06;;;;;;;11.73;5.30;;;;;;;;;;5008437;28;20107;-83
2021/10/31 02:08:34;;;;;;;7.85;4.45;;;;;;;;;;5006265;28;20033;-83
2021/10/31 02:11:01;;;;;;;7.82;4.75;;;;;;;;;;5014201;28;20049;-83
2021/10/31 02:13:28;;;;;;;8.45;4.57;;;;;;;;;;5009963;28;20026;-76
2021/10/31 02:15:55;;;;;;;9.25;5.53;;;;;;;;;;5012433;28;20546;-77
2021/10/31 02:18:23;;;;;;;7.75;4.72;;;;;;;;;;5003319;28;20105;-76
2021/10/31 02:20:52;;;;;;;9.15;5.20;;;;;;;;;;5008214;28;20037;-83
2021/10/31 02:23:18;;;;;;;7.60;5.20;;;;;;;;;;5015327;28;20515;-76
2021/10/31 02:25:43;;;;;;;8.55;4.75;;;;;;;;;;5011757;28;20033;-81
2021/10/31 02:28:09;;;;;;;10.45;5.30;;;;;;;;;;5018717;28;20030;-77
2021/10/31 02:30:35;;;;;;;8.98;4.93;;;;;;;;;;5012930;28;20030;-80
2021/10/31 02:33:00;;;;;;;7.72;4.57;;;;;;;;;;5010199;28;20105;-83
2021/10/31 02:35:25;;;;;;;7.18;4.57;;;;;;;;;;5013021;28;20038;-77
2021/10/31 02:37:51;;;;;;;9.90;5.30;;;;;;;;;;5011127;28;20085;-82
2021/10/31 02:40:20;;;;;;;8.30;5.03;;;;;;;;;;5015820;28;20072;-77
2021/10/31 02:42:46;;;;;;;11.65;5.30;;;;;;;;;;5014049;28;21515;-77
2021/10/31 02:45:12;;;;;;;11.77;5.40;;;;;;;;;;5014601;28;20108;-83
2021/10/31 02:47:42;;;;;;;9.55;5.20;;;;;;;;;;5022589;28;20533;-79
2021/10/31 02:50:11;;;;;;;8.38;4.93;;;;;;;;;;5013733;28;20552;-81
2021/10/31 02:53:03;;;;;;;7.43;4.63;;;;;;;;;;5020386;28;20044;-82
2021/10/31 02:55:50;;;;;;;10.00;4.88;;;;;;;;;;5005017;28;20068;-77
2021/10/31 02:58:19;;;;;;;8.75;4.70;;;;;;;;;;5010032;28;20531;-83
2021/10/31 03:00:45;;;;;;;9.75;4.93;;;;;;;;;;5010596;28;20032;-76
2021/10/31 03:03:12;;;;;;;8.15;4.85;;;;;;;;;;5004414;28;20561;-77
2021/10/31 03:05:37;;;;;;;8.75;5.18;;;;;;;;;;5014198;28;20117;-76
2021/10/31 03:08:03;;;;;;;7.75;5.20;;;;;;;;;;5014650;28;20113;-76
2021/10/31 03:10:28;;;;;;;10.80;5.07;;;;;;;;;;5012029;28;20108;-81
2021/10/31 03:12:53;;;;;;;8.30;5.32;;;;;;;;;;5017240;28;20397;-80
2021/10/31 03:15:20;;;;;;;7.75;4.95;;;;;;;;;;5006890;28;20053;-81
2021/10/31 03:17:45;;;;;;;7.13;4.88;;;;;;;;;;5007011;28;20044;-81
2021/10/31 03:20:11;;;;;;;8.80;5.60;;;;;;;;;;5012822;28;20108;-80
2021/10/31 03:22:36;;;;;;;9.38;5.38;;;;;;;;;;5003586;28;20030;-77
2021/10/31 03:25:03;;;;;;;9.07;5.25;;;;;;;;;;5003586;28;20050;-76
2021/10/31 03:27:28;;;;;;;8.35;5.30;;;;;;;;;;5014704;28;20026;-77
2021/10/31 03:29:54;;;;;;;9.07;5.38;;;;;;;;;;5014005;28;20033;-81
2021/10/31 03:32:19;;;;;;;9.98;5.45;;;;;;;;;;5012424;28;20061;-77
2021/10/31 03:34:45;;;;;;;10.68;5.72;;;;;;;;;;5009792;28;20029;-81
2021/10/31 03:37:10;;;;;;;7.90;5.38;;;;;;;;;;5012028;28;20370;-76
2021/10/31 03:39:35;;;;;;;8.38;5.30;;;;;;;;;;5007890;28;20029;-82
2021/10/31 03:42:01;;;;;;;8.05;6.00;;;;;;;;;;5013101;28;20025;-80
2021/10/31 03:44:28;;;;;;;10.02;5.80;;;;;;;;;;5007650;28;20026;-78
2021/10/31 03:46:54;;;;;;;10.18;6.38;;;;;;;;;;5009162;28;20046;-77
2021/10/31 03:49:19;;;;;;;9.65;6.50;;;;;;;;;;5018151;28;20139;-77
2021/10/31 03:51:45;;;;;;;10.55;6.07;;;;;;;;;;5005858;28;20489;-81
2021/10/31 03:54:11;;;;;;;8.52;5.53;;;;;;;;;;5014804;28;20472;-81
2021/10/31 03:56:37;;;;;;;10.45;6.20;;;;;;;;;;5009779;28;20033;-77
2021/10/31 03:59:03;;;;;;;10.98;6.03;;;;;;;;;;5005862;28;20033;-81
2021/10/31 04:01:31;;;;;;;11.45;6.65;;;;;;;;;;5010396;28;20413;-83
2021/10/31 04:03:57;;;;;;;9.50;6.22;;;;;;;;;;5007694;28;20045;-77
2021/10/31 04:06:22;;;;;;;9.63;6.35;;;;;;;;;;5009562;28;20026;-76
2021/10/31 04:08:48;;;;;;;11.45;6.97;;;;;;;;;;5012970;28;20506;-77
2021/10/31 04:11:13;;;;;;;11.75;7.20;;;;;;;;;;5011364;28;20052;-76
2021/10/31 04:13:38;;;;;;;10.88;6.85;;;;;;;;;;5008401;28;20473;-81
2021/10/31 04:16:04;;;;;;;11.30;6.72;;;;;;;;;;5011509;28;20081;-81
2021/10/31 04:18:30;;;;;;;12.63;7.07;;;;;;;;;;5009770;28;20064;-82
2021/10/31 04:20:56;;;;;;;11.25;7.00;;;;;;;;;;5012371;28;20033;-76
2021/10/31 04:23:22;;;;;;;10.30;7.30;;;;;;;;;;5011521;28;20038;-83
2021/10/31 04:25:48;;;;;;;10.18;6.75;;;;;;;;;;5015532;28;20029;-77
2021/10/31 04:28:13;;;;;;;9.45;6.55;;;;;;;;;;5011724;28;20032;-77
2021/10/31 04:30:39;;;;;;;11.35;7.70;;;;;;;;;;5009345;28;20048;-78
2021/10/31 04:33:05;;;;;;;11.50;7.60;;;;;;;;;;5007211;28;20033;-80
2021/10/31 04:35:30;;;;;;;11.07;7.45;;;;;;;;;;5017939;28;20053;-82
2021/10/31 04:37:58;;;;;;;11.55;7.18;;;;;;;;;;5011686;28;20054;-76
2021/10/31 04:40:24;;;;;;;13.18;8.13;;;;;;;;;;5018058;28;20079;-81
2021/10/31 04:42:53;;;;;;;10.55;6.95;;;;;;;;;;5015867;28;20029;-82
2021/10/31 04:45:18;;;;;;;11.32;7.35;;;;;;;;;;5012724;28;20034;-76
2021/10/31 04:47:44;;;;;;;11.00;6.95;;;;;;;;;;5014500;28;20036;-81
2021/10/31 04:50:09;;;;;;;12.88;7.07;;;;;;;;;;5018756;28;20041;-77
2021/10/31 04:52:34;;;;;;;11.07;7.32;;;;;;;;;;5009480;28;20041;-82
2021/10/31 04:55:00;;;;;;;12.88;7.20;;;;;;;;;;5016188;28;20025;-82
2021/10/31 04:57:25;;;;;;;12.38;7.03;;;;;;;;;;5006588;28;20034;-76
2021/10/31 04:59:50;;;;;;;9.93;6.55;;;;;;;;;;5018615;28;20381;-83
2021/10/31 05:02:16;;;;;;;12.68;7.45;;;;;;;;;;5018204;28;20025;-76
2021/10/31 05:04:42;;;;;;;10.80;7.07;;;;;;;;;;5015166;28;20413;-80
2021/10/31 05:07:08;;;;;;;9.45;6.97;;;;;;;;;;5012266;28;20021;-76
2021/10/31 05:09:33;;;;;;;14.02;7.22;;;;;;;;;;5011895;28;20029;-78
2021/10/31 05:11:58;;;;;;;13.40;7.75;;;;;;;;;;5002203;28;20110;-81
2021/10/31 05:14:23;;;;;;;12.00;7.28;;;;;;;;;;5013558;28;20049;-81
2021/10/31 05:16:49;;;;;;;11.68;7.53;;;;;;;;;;5007971;28;20040;-77
2021/10/31 05:19:15;;;;;;;14.82;8.10;;;;;;;;;;5007684;28;20133;-76
2021/10/31 05:21:40;;;;;;;10.85;7.78;;;;;;;;;;5005322;28;20045;-80
2021/10/31 05:24:06;;;;;;;10.93;7.72;;;;;;;;;;5007751;28;20072;-76
2021/10/31 05:26:31;;;;;;;11.93;7.68;;;;;;;;;;5009149;28;20362;-80
2021/10/31 05:28:57;;;;;;;13.68;7.28;;;;;;;;;;5009939;28;20030;-80
2021/10/31 05:31:22;;;;;;;10.60;7.40;;;;;;;;;;5010134;28;20029;-81
2021/10/31 05:33:48;;;;;;;12.80;7.60;;;;;;;;;;5022006;28;20075;-82
2021/10/31 05:36:14;;;;;;;10.77;6.50;;;;;;;;;;5013101;28;20378;-83
2021/10/31 05:38:40;;;;;;;12.35;7.88;;;;;;;;;;5014263;28;20041;-76
2021/10/31 05:41:05;;;;;;;11.48;7.53;;;;;;;;;;5011496;28;20048;-77
2021/10/31 05:43:31;;;;;;;10.45;7.55;;;;;;;;;;5007526;28;20033;-77
2021/10/31 05:45:57;;;;;;;12.55;6.93;;;;;;;;;;5016277;28;21394;-80
2021/10/31 05:48:24;;;;;;;10.95;6.90;;;;;;;;;;5018822;28;20021;-76
2021/10/31 05:50:49;;;;;;;11.43;7.63;;;;;;;;;;5008840;28;20119;-77
2021/10/31 05:53:15;;;;;;;11.15;7.55;;;;;;;;;;5014292;28;20483;-77
2021/10/31 05:55:40;;;;;;;11.52;7.22;;;;;;;;;;5017592;28;20029;-76
2021/10/31 05:58:06;;;;;;;11.48;7.40;;;;;;;;;;5013779;28;20037;-82
2021/10/31 06:00:31;;;;;;;10.13;6.85;;;;;;;;;;5008530;28;20037;-82
2021/10/31 06:02:57;;;;;;;10.65;7.30;;;;;;;;;;5011871;28;20180;-83
2021/10/31 06:05:22;;;;;;;9.38;6.70;;;;;;;;;;5006968;28;20026;-82
2021/10/31 06:07:48;;;;;;;14.00;7.47;;;;;;;;;;5011955;28;20075;-77
2021/10/31 06:10:13;;;;;;;11.82;7.15;;;;;;;;;;5005090;28;20072;-82
2021/10/31 06:12:44;;;;;;;10.55;7.13;;;;;;;;;;5010404;28;20038;-76
2021/10/31 06:15:11;;;;;;;11.30;6.93;;;;;;;;;;5009004;28;20034;-80
2021/10/31 06:17:38;;;;;;;13.70;8.05;;;;;;;;;;5008437;28;20027;-80
2021/10/31 06:20:05;;;;;;;10.32;6.97;;;;;;;;;;5005039;28;20109;-82
2021/10/31 06:22:30;;;;;;;13.18;7.18;;;;;;;;;;4993801;28;20069;-80
2021/10/31 06:24:56;;;;;;;9.32;6.88;;;;;;;;;;5011472;28;20061;-80
2021/10/31 06:27:21;;;;;;;9.00;7.40;;;;;;;;;;5009895;28;20087;-76
2021/10/31 06:29:46;;;;;;;11.27;7.80;;;;;;;;;;5015905;28;20461;-76
2021/10/31 06:32:12;;;;;;;12.00;7.85;;;;;;;;;;5012586;28;20109;-77
2021/10/31 06:34:37;;;;;;;9.65;6.90;;;;;;;;;;5011618;28;20041;-77
2021/10/31 06:37:02;;;;;;;10.23;7.20;;;;;;;;;;5008161;28;20033;-82
2021/10/31 06:39:28;;;;;;;12.55;7.57;;;;;;;;;;5005051;28;20023;-75
2021/10/31 06:41:53;;;;;;;9.07;6.32;;;;;;;;;;5001182;28;20137;-76
2021/10/31 06:44:18;;;;;;;10.75;7.35;;;;;;;;;;5008379;28;20030;-82
2021/10/31 06:46:44;;;;;;;9.55;6.95;;;;;;;;;;5002405;28;20038;-80
2021/10/31 06:49:10;;;;;;;10.75;7.38;;;;;;;;;;5006514;28;20457;-76
2021/10/31 06:51:35;;;;;;;9.85;7.57;;;;;;;;;;5011731;28;20549;-76
2021/10/31 06:54:01;;;;;;;11.15;7.30;;;;;;;;;;5015173;28;20104;-77
2021/10/31 06:56:26;;;;;;;10.27;7.03;;;;;;;;;;5004147;28;20035;-82
2021/10/31 06:58:52;;;;;;;13.10;7.68;;;;;;;;;;5006699;28;20058;-76
2021/10/31 07:01:18;;;;;;;9.80;7.22;;;;;;;;;;5002752;28;20029;-77
2021/10/31 07:03:45;;;;;;;12.32;7.55;;;;;;;;;;5007984;28;20029;-76
2021/10/31 07:06:11;;;;;;;11.07;7.38;;;;;;;;;;5003724;28;20044;-77
2021/10/31 07:08:36;;;;;;;12.00;7.88;;;;;;;;;;5007270;28;20202;-76
2021/10/31 07:11:02;;;;;;;11.07;6.88;;;;;;;;;;5018054;28;20081;-77
2021/10/31 07:13:27;;;;;;;10.70;7.53;;;;;;;;;;5012546;28;20025;-81
2021/10/31 07:15:52;;;;;;;12.05;7.55;;;;;;;;;;5002345;28;20034;-83
2021/10/31 07:18:18;;;;;;;9.95;7.55;;;;;;;;;;5004672;28;20378;-77
2021/10/31 07:20:43;;;;;;;10.45;7.47;;;;;;;;;;5005430;28;20037;-80
2021/10/31 07:23:08;;;;;;;11.18;7.63;;;;;;;;;;5011536;28;20034;-80
2021/10/31 07:25:34;;;;;;;12.30;7.45;;;;;;;;;;5020087;28;20025;-78
2021/10/31 07:27:59;;;;;;;9.55;7.47;;;;;;;;;;5014424;28;20029;-82
2021/10/31 07:30:25;;;;;;;10.80;7.53;;;;;;;;;;5011272;28;20034;-82
2021/10/31 07:32:59;;;;;;;11.18;7.97;;;;;;;;;;5010728;28;20027;-80
2021/10/31 07:35:24;;;;;;;12.88;7.25;;;;;;;;;;4999249;28;20053;-77
2021/10/31 07:37:50;;;;;;;11.40;7.55;;;;;;;;;;5003647;28;20495;-80
2021/10/31 07:40:16;;;;;;;12.38;7.57;;;;;;;;;;5007932;28;20034;-77
2021/10/31 07:42:42;;;;;;;10.10;7.57;;;;;;;;;;5013076;28;20503;-78
2021/10/31 07:45:08;;;;;;;11.05;7.22;;;;;;;;;;5012104;28;20030;-79
2021/10/31 07:47:33;;;;;;;9.65;7.25;;;;;;;;;;5010298;28;20029;-79
2021/10/31 07:49:59;;;;;;;11.65;7.80;;;;;;;;;;5003110;28;20033;-80
2021/10/31 07:52:25;;;;;;;10.60;7.82;;;;;;;;;;5018329;28;20087;-76
2021/10/31 07:54:51;;;;;;;12.15;7.50;;;;;;;;;;5015074;28;20060;-80
2021/10/31 07:57:22;;;;;;;10.70;7.03;;;;;;;;;;5009717;28;20064;-79
2021/10/31 07:59:48;;;;;;;10.48;6.85;;;;;;;;;;5013053;28;20433;-81
2021/10/31 08:02:13;;;;;;;8.98;6.85;;;;;;;;;;5020304;28;20021;-78
2021/10/31 08:04:38;;;;;;;9.55;6.55;;;;;;;;;;5012562;28;20029;-79
2021/10/31 08:07:04;;;;;;;9.30;6.93;;;;;;;;;;5017456;28;20074;-82
2021/10/31 08:09:29;;;;;;;8.20;6.22;;;;;;;;;;5012051;28;20049;-77
2021/10/31 08:11:55;;;;;;;11.45;6.68;;;;;;;;;;5007622;28;20058;-82
2021/10/31 08:14:20;;;;;;;9.25;6.50;;;;;;;;;;5012203;28;20509;-80
2021/10/31 08:16:46;;;;;;;8.35;6.50;;;;;;;;;;5008849;28;20051;-80
2021/10/31 08:19:11;;;;;;;8.48;6.18;;;;;;;;;;5011805;28;20443;-79
2021/10/31 08:21:37;;;;;;;10.52;6.45;;;;;;;;;;5015349;28;20029;-80
2021/10/31 08:24:03;;;;;;;9.90;6.60;;;;;;;;;;5007119;28;20040;-79
2021/10/31 08:26:29;;;;;;;9.45;7.05;;;;;;;;;;5013073;28;20057;-77
2021/10/31 08:28:55;;;;;;;8.57;6.65;;;;;;;;;;5013271;28;20668;-77
2021/10/31 08:31:27;;;;;;;8.10;6.40;;;;;;;;;;5019234;28;20036;-79
2021/10/31 08:34:01;;;;;;;9.55;6.25;;;;;;;;;;5016398;28;20034;-79
2021/10/31 08:36:28;;;;;;;8.10;6.40;;;;;;;;;;5015532;28;20092;-81
2021/10/31 08:38:54;;;;;;;8.90;6.63;;;;;;;;;;5020392;28;20037;-80
2021/10/31 08:41:21;;;;;;;8.38;6.55;;;;;;;;;;5020435;28;20041;-80
2021/10/31 08:43:47;;;;;;;9.98;6.05;;;;;;;;;;5015822;28;20026;-79
2021/10/31 08:46:14;;;;;;;7.68;6.13;;;;;;;;;;5014681;28;20087;-81
2021/10/31 08:48:40;;;;;;;7.78;5.63;;;;;;;;;;5007024;28;20075;-77
2021/10/31 08:51:06;;;;;;;8.85;6.40;;;;;;;;;;5016363;28;20030;-79
2021/10/31 08:53:32;;;;;;;6.95;5.78;;;;;;;;;;5005919;28;20629;-76
2021/10/31 08:55:58;;;;;;;6.70;5.40;;;;;;;;;;5014896;28;20029;-77
2021/10/31 08:58:23;;;;;;;9.65;5.90;;;;;;;;;;5008601;28;20040;-77
2021/10/31 09:00:49;;;;;;;8.18;5.55;;;;;;;;;;5015784;28;20033;-77
2021/10/31 09:03:14;;;;;;;7.15;5.65;;;;;;;;;;5021270;28;20392;-77
2021/10/31 09:05:39;;;;;;;7.95;6.28;;;;;;;;;;5013024;28;20038;-79
2021/10/31 09:08:06;;;;;;;9.63;5.82;;;;;;;;;;5018024;28;20144;-77
2021/10/31 09:10:32;;;;;;;7.72;5.55;;;;;;;;;;5015174;28;20080;-76
2021/10/31 09:12:58;;;;;;;9.38;6.05;;;;;;;;;;5013883;28;20568;-81
2021/10/31 09:15:24;;;;;;;6.72;4.97;;;;;;;;;;5010924;28;20022;-81
2021/10/31 09:17:49;;;;;;;6.80;4.97;;;;;;;;;;5017485;28;20376;-77
2021/10/31 09:20:15;;;;;;;6.25;4.68;;;;;;;;;;5015600;28;20021;-77
2021/10/31 09:22:41;;;;;;;6.85;4.95;;;;;;;;;;5012203;28;20512;-77
2021/10/31 09:25:07;;;;;;;7.20;4.82;;;;;;;;;;5006137;28;20030;-79
2021/10/31 09:27:33;;;;;;;7.22;4.75;;;;;;;;;;5004383;28;20038;-77
2021/10/31 09:29:58;;;;;;;7.22;4.70;;;;;;;;;;5007496;28;20112;-77
2021/10/31 09:32:34;;;;;;;5.47;4.38;;;;;;;;;;5013475;28;20021;-78
2021/10/31 09:35:00;;;;;;;6.43;4.20;;;;;;;;;;5000488;28;20029;-77
2021/10/31 09:37:25;;;;;;;6.38;4.25;;;;;;;;;;5005575;28;20030;-79
2021/10/31 09:39:51;;;;;;;6.32;4.47;;;;;;;;;;5002600;28;20037;-79
2021/10/31 09:42:17;;;;;;;6.15;4.20;;;;;;;;;;5001760;28;20751;-79
2021/10/31 09:44:49;;;;;;;6.22;4.20;;;;;;;;;;5006292;28;20493;-82
2021/10/31 09:47:15;;;;;;;6.32;3.88;;;;;;;;;;4999195;28;20033;-81
2021/10/31 09:49:41;;;;;;;5.20;3.80;;;;;;;;;;4997923;28;20885;-78
2021/10/31 09:52:07;;;;;;;5.47;3.67;;;;;;;;;;5003797;28;20088;-78
2021/10/31 09:54:32;;;;;;;8.13;3.80;;;;;;;;;;5010695;28;20700;-80
2021/10/31 09:56:58;;;;;;;6.78;3.30;;;;;;;;;;5007025;28;20030;-77
2021/10/31 09:59:26;;;;;;;5.00;3.22;;;;;;;;;;5005907;28;20087;-80
2021/10/31 10:02:01;;;;;;;6.50;3.83;;;;;;;;;;5001655;28;20548;-80
2021/10/31 10:04:28;;;;;;;4.57;3.28;;;;;;;;;;5011925;28;20100;-79
2021/10/31 10:06:56;;;;;;;5.25;3.40;;;;;;;;;;5010929;28;20042;-78
2021/10/31 10:09:22;;;;;;;4.10;3.10;;;;;;;;;;5003647;28;20065;-79
2021/10/31 10:11:48;;;;;;;5.72;3.55;;;;;;;;;;5008566;28;20485;-79
2021/10/31 10:14:19;;;;;;;5.80;3.65;;;;;;;;;;4999716;28;20030;-79
2021/10/31 10:16:46;;;;;;;6.40;3.70;;;;;;;;;;5009916;28;20021;-77
2021/10/31 10:19:21;;;;;;;4.80;3.30;;;;;;;;;;5005304;28;20041;-79
2021/10/31 10:22:10;;;;;;;5.35;3.38;;;;;;;;;;5008742;28;20071;-81
2021/10/31 10:24:58;;;;;;;6.10;3.40;;;;;;;;;;5008171;28;20037;-77
2021/10/31 10:27:27;;;;;;;7.25;3.60;;;;;;;;;;4999522;28;20132;-76
2021/10/31 10:29:54;;;;;;;7.38;3.67;;;;;;;;;;5015351;28;20029;-82
2021/10/31 10:32:23;;;;;;;4.93;3.30;;;;;;;;;;5013896;28;20034;-80
2021/10/31 10:34:53;;;;;;;4.93;3.35;;;;;;;;;;5013653;28;20044;-83
2021/10/31 10:37:32;;;;;;;6.05;3.88;;;;;;;;;;5011560;28;20049;-77
2021/10/31 10:39:59;;;;;;;4.20;3.17;;;;;;;;;;5006238;28;20034;-76
2021/10/31 10:42:36;;;;;;;6.72;3.05;;;;;;;;;;5021188;28;20030;-81
2021/10/31 10:45:15;;;;;;;6.10;3.25;;;;;;;;;;5008920;28;20038;-77
2021/10/31 10:47:43;;;;;;;5.85;2.95;;;;;;;;;;5016718;28;20112;-76
2021/10/31 10:50:17;;;;;;;5.55;3.13;;;;;;;;;;5023847;28;20036;-83
2021/10/31 10:52:43;;;;;;;4.40;2.67;;;;;;;;;;5024129;28;20029;-82
2021/10/31 10:55:17;;;;;;;5.55;2.78;;;;;;;;;;5017268;28;20112;-77
2021/10/31 10:57:54;;;;;;;4.50;2.78;;;;;;;;;;5012581;28;20036;-77
2021/10/31 11:00:27;;;;;;;3.88;2.55;;;;;;;;;;5016024;28;20059;-78
2021/10/31 11:03:20;;;;;;;6.25;2.65;;;;;;;;;;5015148;28;20025;-77
2021/10/31 11:05:49;;;;;;;7.47;3.17;;;;;;;;;;5031763;28;20041;-82
2021/10/31 11:08:20;;;;;;;9.02;3.33;;;;;;;;;;5013227;28;20049;-77
2021/10/31 11:10:54;;;;;;;4.70;2.42;;;;;;;;;;5016290;28;20108;-77
2021/10/31 11:13:21;;;;;;;4.22;2.45;;;;;;;;;;5005768;28;20042;-81
2021/10/31 11:15:48;;;;;;;3.35;2.28;;;;;;;;;;5022527;28;20085;-76
2021/10/31 11:18:14;;;;;;;5.05;2.70;;;;;;;;;;5018060;28;20176;-83
2021/10/31 11:20:45;;;;;;;3.97;2.00;;;;;;;;;;5011355;28;20042;-79
2021/10/31 11:23:14;;;;;;;4.97;2.30;;;;;;;;;;5008234;28;20393;-77
2021/10/31 11:25:41;;;;;;;5.30;2.38;;;;;;;;;;5011209;28;20034;-77
2021/10/31 11:28:12;;;;;;;6.10;2.42;;;;;;;;;;5020044;28;20036;-81
2021/10/31 11:30:38;;;;;;;5.05;2.60;;;;;;;;;;5014599;28;20107;-77
2021/10/31 11:33:06;;;;;;;3.60;2.28;;;;;;;;;;5017629;28;20429;-81
2021/10/31 11:35:34;;;;;;;4.20;2.50;;;;;;;;;;5019540;28;20470;-84
2021/10/31 11:38:07;;;;;;;4.82;2.20;;;;;;;;;;5015973;28;20060;-83
2021/10/31 11:40:36;;;;;;;5.38;2.00;;;;;;;;;;5010792;28;20027;-78
2021/10/31 11:43:06;;;;;;;4.93;2.15;;;;;;;;;;5015805;28;20033;-77
2021/10/31 11:45:38;;;;;;;3.80;2.22;;;;;;;;;;5014108;28;20065;-83
2021/10/31 11:48:14;;;;;;;3.13;1.80;;;;;;;;;;5010342;28;20029;-83
2021/10/31 11:50:41;;;;;;;3.45;2.00;;;;;;;;;;5016332;28;20034;-78
2021/10/31 11:53:16;;;;;;;4.22;2.20;;;;;;;;;;5004671;28;20050;-77
2021/10/31 11:55:48;;;;;;;3.65;2.25;;;;;;;;;;5014299;28;20674;-83
2021/10/31 11:58:33;;;;;;;3.78;2.05;;;;;;;;;;5017155;28;20034;-78
2021/10/31 12:01:00;;;;;;;5.85;2.10;;;;;;;;;;5010535;28;20393;-79
2021/10/31 12:03:31;;;;;;;7.07;2.80;;;;;;;;;;5013383;28;20038;-81
2021/10/31 12:06:21;;;;;;;3.55;2.05;;;;;;;;;;5020208;28;20064;-81
2021/10/31 12:08:54;;;;;;;4.13;2.25;;;;;;;;;;5003197;28;20045;-81
2021/10/31 12:11:40;;;;;;;;;;;;;;;;;;5009452;28;20050;-78
2021/10/31 12:14:10;;;;;;;4.35;2.20;;;;;;;;;;4991556;28;19921;-81
2021/10/31 12:16:59;;;;;;;3.75;2.28;;;;;;;;;;4998338;28;20041;-83
2021/10/31 12:19:45;;;;;;;4.65;2.40;;;;;;;;;;5011415;28;20065;-77
2021/10/31 12:22:20;;;;;;;4.68;2.65;;;;;;;;;;5005759;28;20037;-81
2021/10/31 12:24:57;;;;;;;4.50;2.88;;;;;;;;;;5009446;28;20030;-79
2021/10/31 12:27:25;;;;;;;4.93;2.70;;;;;;;;;;5011352;28;20037;-77
2021/10/31 12:30:22;;;;;;;3.92;2.60;;;;;;;;;;5022838;28;20033;-81
2021/10/31 12:32:48;;;;;;;5.85;2.53;;;;;;;;;;5015620;28;20065;-81
2021/10/31 12:35:56;;;;;;;4.38;2.70;;;;;;;;;;5004358;28;20040;-77
2021/10/31 12:38:24;;;;;;;4.68;2.80;;;;;;;;;;4989331;28;20074;-78
2021/10/31 12:41:11;;;;;;;4.43;2.60;;;;;;;;;;4970938;28;20494;-84
2021/10/31 12:43:44;;;;;;;7.05;2.63;;;;;;;;;;4995224;28;20033;-78
2021/10/31 12:46:26;;;;;;;3.58;2.50;;;;;;;;;;5014926;28;20029;-84
2021/10/31 12:48:58;;;;;;;5.28;2.60;;;;;;;;;;5020563;28;20014;-76
2021/10/31 12:54:19;;;;;;;5.43;2.65;;;;;;;;;;5017834;28;20021;-86
2021/10/31 12:56:45;;;;;;;5.40;2.90;;;;;;;;;;5017532;28;20080;-76
2021/10/31 12:59:12;;;;;;;6.20;2.50;;;;;;;;;;5014234;28;20038;-77
2021/10/31 13:01:38;;;;;;;5.47;2.55;;;;;;;;;;5019018;28;20041;-78
2021/10/31 13:04:06;;;;;;;4.75;2.70;;;;;;;;;;5012436;28;20057;-78
2021/10/31 13:06:50;;;;;;;5.93;2.72;;;;;;;;;;5014978;28;20036;-78
2021/10/31 13:09:16;;;;;;;3.75;2.40;;;;;;;;;;5013835;28;20022;-81
2021/10/31 13:11:42;;;;;;;4.93;2.75;;;;;;;;;;5021099;28;20048;-82
2021/10/31 13:14:36;;;;;;;4.00;2.47;;;;;;;;;;5014358;28;20056;-77
2021/10/31 13:17:03;;;;;;;7.93;3.22;;;;;;;;;;5017836;28;20026;-78
2021/10/31 13:19:34;;;;;;;3.65;2.40;;;;;;;;;;5016270;28;20033;-84
2021/10/31 13:22:01;;;;;;;6.13;3.35;;;;;;;;;;5019519;28;20037;-79
2021/10/31 13:24:33;;;;;;;6.63;3.00;;;;;;;;;;5017144;28;20040;-83
2021/10/31 13:27:00;;;;;;;8.70;4.35;;;;;;;;;;5016899;28;20028;-86
2021/10/31 13:29:43;;;;;;;6.00;3.15;;;;;;;;;;5020063;28;20034;-81
2021/10/31 13:32:21;;;;;;;4.43;3.13;;;;;;;;;;5020223;28;20124;-78
2021/10/31 13:34:49;;;;;;;5.45;3.85;;;;;;;;;;5012792;28;20057;-82
2021/10/31 13:37:17;;;;;;;6.32;3.58;;;;;;;;;;5010170;28;20034;-84
2021/10/31 13:40:07;;;;;;;5.45;3.22;;;;;;;;;;5016661;28;20026;-78
2021/10/31 13:42:44;;;;;;;6.45;3.83;;;;;;;;;;5017636;28;20061;-77
2021/10/31 13:45:18;;;;;;;4.63;3.00;;;;;;;;;;5014826;28;20044;-79
2021/10/31 13:47:52;;;;;;;5.85;2.60;;;;;;;;;;5012876;28;20076;-85
2021/10/31 13:50:21;;;;;;;11.35;3.28;;;;;;;;;;5009515;28;20097;-78
2021/10/31 13:52:52;;;;;;;4.53;2.55;;;;;;;;;;5015419;28;20092;-78
2021/10/31 13:55:20;;;;;;;4.50;2.70;;;;;;;;;;5016479;28;20054;-78
2021/10/31 13:57:47;;;;;;;4.60;2.30;;;;;;;;;;5020421;28;20499;-82
2021/10/31 14:00:15;;;;;;;4.40;2.60;;;;;;;;;;5013760;28;20026;-78
2021/10/31 14:02:41;;;;;;;4.47;2.50;;;;;;;;;;5008572;28;20026;-77
2021/10/31 14:05:08;;;;;;;5.70;2.47;;;;;;;;;;5020645;28;20029;-78
2021/10/31 14:07:36;;;;;;;3.80;2.50;;;;;;;;;;5017538;28;20034;-79
2021/10/31 14:10:03;;;;;;;5.15;2.70;;;;;;;;;;5018725;28;20033;-82
2021/10/31 14:12:28;;;;;;;4.15;2.75;;;;;;;;;;5019714;28;20022;-82
2021/10/31 14:15:05;;;;;;;4.95;2.65;;;;;;;;;;5026399;28;20160;-79
2021/10/31 14:17:32;;;;;;;3.88;2.75;;;;;;;;;;5024562;28;20116;-77
2021/10/31 14:19:59;;;;;;;5.50;3.10;;;;;;;;;;5016057;28;20478;-77
2021/10/31 14:22:29;;;;;;;4.80;2.72;;;;;;;;;;5019376;28;20021;-82
2021/10/31 14:25:06;;;;;;;7.88;3.08;;;;;;;;;;4999472;28;20022;-79
2021/10/31 14:27:35;;;;;;;6.43;2.90;;;;;;;;;;5028263;28;20030;-78
2021/10/31 14:30:23;;;;;;;4.43;2.60;;;;;;;;;;5010399;28;20040;-79
2021/10/31 14:32:54;;;;;;;3.78;2.40;;;;;;;;;;5013883;28;20053;-78
2021/10/31 14:35:21;;;;;;;4.10;2.30;;;;;;;;;;5020492;28;20049;-78
2021/10/31 14:38:24;;;;;;;3.47;2.40;;;;;;;;;;5028413;28;20060;-82
2021/10/31 14:41:13;;;;;;;3.83;2.63;;;;;;;;;;5015021;28;20128;-82
2021/10/31 14:43:52;;;;;;;3.40;2.25;;;;;;;;;;5006801;28;20026;-77
2021/10/31 14:46:22;;;;;;;6.25;2.80;;;;;;;;;;4997843;28;20075;-85
2021/10/31 14:48:54;;;;;;;4.65;2.20;;;;;;;;;;5012028;28;20033;-87
2021/10/31 14:51:36;;;;;;;3.20;2.00;;;;;;;;;;5013309;28;20033;-87
2021/10/31 14:54:20;;;;;;;3.90;2.00;;;;;;;;;;5014504;28;20018;-77